sensor_id;sensor_type;location;lat;lon;timestamp;temperature;humidity
15765;DHT22;7983;50.744;7.086;2023-02-04T00:00:20;10.50;99.90
15765;DHT22;7983;50.744;7.086;2023-02-04T00:02:51;10.40;99.90
15765;DHT22;7983;50.744;7.086;2023-02-04T00:05:19;10.40;99.90
15765;DHT22;7983;50.744;7.086;2023-02-04T00:07:46;10.50;99.90
15765;DHT22;7983;50.744;7.086;2023-02-04T00:10:12;10.40;99.90
15765;DHT22;7983;50.744;7.086;2023-02-04T00:12:40;10.40;99.90
15765;DHT22;7983;50.744;7.086;2023-02-04T00:15:06;10.40;99.90
15765;DHT22;7983;50.744;7.086;2023-02-04T00:17:31;10.40;99.90
15765;DHT22;7983;50.744;7.086;2023-02-04T00:19:57;10.30;99.90
15765;DHT22;7983;50.744;7.086;2023-02-04T00:22:24;10.30;99.90
15765;DHT22;7983;50.744;7.086;2023-02-04T00:24:52;10.30;99.90
15765;DHT22;7983;50.744;7.086;2023-02-04T00:27:18;10.30;99.90
15765;DHT22;7983;50.744;7.086;2023-02-04T00:29:43;10.30;99.90
15765;DHT22;7983;50.744;7.086;2023-02-04T00:32:09;10.20;99.90
15765;DHT22;7983;50.744;7.086;2023-02-04T00:34:39;10.20;99.90
15765;DHT22;7983;50.744;7.086;2023-02-04T00:37:06;10.20;99.90
15765;DHT22;7983;50.744;7.086;2023-02-04T00:39:35;10.20;99.90
15765;DHT22;7983;50.744;7.086;2023-02-04T00:42:03;10.20;99.90
15765;DHT22;7983;50.744;7.086;2023-02-04T00:44:30;10.20;99.90
15765;DHT22;7983;50.744;7.086;2023-02-04T00:47:00;10.20;99.90
15765;DHT22;7983;50.744;7.086;2023-02-04T00:49:26;10.20;99.90
15765;DHT22;7983;50.744;7.086;2023-02-04T00:51:54;10.10;99.90
15765;DHT22;7983;50.744;7.086;2023-02-04T00:54:22;10.20;99.90
15765;DHT22;7983;50.744;7.086;2023-02-04T00:56:47;10.10;99.90
15765;DHT22;7983;50.744;7.086;2023-02-04T00:59:13;10.20;99.90
15765;DHT22;7983;50.744;7.086;2023-02-04T01:01:38;10.10;99.90
15765;DHT22;7983;50.744;7.086;2023-02-04T01:04:04;10.10;99.90
15765;DHT22;7983;50.744;7.086;2023-02-04T01:06:30;10.10;99.90
15765;DHT22;7983;50.744;7.086;2023-02-04T01:08:56;10.10;99.90
15765;DHT22;7983;50.744;7.086;2023-02-04T01:11:21;10.10;99.90
15765;DHT22;7983;50.744;7.086;2023-02-04T01:13:50;10.10;99.90
15765;DHT22;7983;50.744;7.086;2023-02-04T01:16:19;10.10;99.90
15765;DHT22;7983;50.744;7.086;2023-02-04T01:18:47;10.10;99.90
15765;DHT22;7983;50.744;7.086;2023-02-04T01:21:16;10.10;99.90
15765;DHT22;7983;50.744;7.086;2023-02-04T01:23:41;10.10;99.90
15765;DHT22;7983;50.744;7.086;2023-02-04T01:26:11;10.10;99.90
15765;DHT22;7983;50.744;7.086;2023-02-04T01:28:39;10.10;99.90
15765;DHT22;7983;50.744;7.086;2023-02-04T01:31:07;10.10;99.90
15765;DHT22;7983;50.744;7.086;2023-02-04T01:33:35;10.10;99.90
15765;DHT22;7983;50.744;7.086;2023-02-04T01:36:03;10.10;99.90
15765;DHT22;7983;50.744;7.086;2023-02-04T01:38:29;10.10;99.90
15765;DHT22;7983;50.744;7.086;2023-02-04T01:40:55;10.10;99.90
15765;DHT22;7983;50.744;7.086;2023-02-04T01:43:21;10.10;99.90
15765;DHT22;7983;50.744;7.086;2023-02-04T01:45:48;10.10;99.90
15765;DHT22;7983;50.744;7.086;2023-02-04T01:48:19;10.10;99.90
15765;DHT22;7983;50.744;7.086;2023-02-04T01:50:52;10.10;99.90
15765;DHT22;7983;50.744;7.086;2023-02-04T01:53:25;10.00;99.90
15765;DHT22;7983;50.744;7.086;2023-02-04T01:55:51;10.10;99.90
15765;DHT22;7983;50.744;7.086;2023-02-04T01:58:19;10.10;99.90
15765;DHT22;7983;50.744;7.086;2023-02-04T02:00:47;10.00;99.90
15765;DHT22;7983;50.744;7.086;2023-02-04T02:03:13;10.00;99.90
15765;DHT22;7983;50.744;7.086;2023-02-04T02:05:40;10.00;99.90
15765;DHT22;7983;50.744;7.086;2023-02-04T02:08:08;10.00;99.90
15765;DHT22;7983;50.744;7.086;2023-02-04T02:10:39;10.00;99.90
15765;DHT22;7983;50.744;7.086;2023-02-04T02:13:10;10.00;99.90
15765;DHT22;7983;50.744;7.086;2023-02-04T02:15:36;9.90;99.90
15765;DHT22;7983;50.744;7.086;2023-02-04T02:18:07;10.00;99.90
15765;DHT22;7983;50.744;7.086;2023-02-04T02:20:34;9.90;99.90
15765;DHT22;7983;50.744;7.086;2023-02-04T02:25:38;9.90;99.90
15765;DHT22;7983;50.744;7.086;2023-02-04T02:28:11;9.90;99.90
15765;DHT22;7983;50.744;7.086;2023-02-04T02:30:37;9.90;99.90
15765;DHT22;7983;50.744;7.086;2023-02-04T02:33:06;9.90;99.90
15765;DHT22;7983;50.744;7.086;2023-02-04T02:35:34;9.90;99.90
15765;DHT22;7983;50.744;7.086;2023-02-04T02:38:00;9.90;99.90
15765;DHT22;7983;50.744;7.086;2023-02-04T02:40:28;9.80;99.90
15765;DHT22;7983;50.744;7.086;2023-02-04T02:42:56;9.80;99.90
15765;DHT22;7983;50.744;7.086;2023-02-04T02:45:27;9.80;99.90
15765;DHT22;7983;50.744;7.086;2023-02-04T02:47:56;9.70;99.90
15765;DHT22;7983;50.744;7.086;2023-02-04T02:50:25;9.70;99.90
15765;DHT22;7983;50.744;7.086;2023-02-04T02:52:52;9.70;99.90
15765;DHT22;7983;50.744;7.086;2023-02-04T02:55:19;9.60;99.90
15765;DHT22;7983;50.744;7.086;2023-02-04T02:57:47;9.60;99.90
15765;DHT22;7983;50.744;7.086;2023-02-04T03:00:18;9.60;99.90
15765;DHT22;7983;50.744;7.086;2023-02-04T03:02:56;9.50;99.90
15765;DHT22;7983;50.744;7.086;2023-02-04T03:05:27;9.50;99.90
15765;DHT22;7983;50.744;7.086;2023-02-04T03:07:54;9.50;99.90
15765;DHT22;7983;50.744;7.086;2023-02-04T03:10:20;9.40;99.90
15765;DHT22;7983;50.744;7.086;2023-02-04T03:12:46;9.40;99.90
15765;DHT22;7983;50.744;7.086;2023-02-04T03:15:15;9.40;99.90
15765;DHT22;7983;50.744;7.086;2023-02-04T03:17:46;9.40;99.90
15765;DHT22;7983;50.744;7.086;2023-02-04T03:20:13;9.40;99.90
15765;DHT22;7983;50.744;7.086;2023-02-04T03:22:42;9.30;99.90
15765;DHT22;7983;50.744;7.086;2023-02-04T03:25:08;9.30;99.90
15765;DHT22;7983;50.744;7.086;2023-02-04T03:27:36;9.30;99.90
15765;DHT22;7983;50.744;7.086;2023-02-04T03:30:04;9.30;99.90
15765;DHT22;7983;50.744;7.086;2023-02-04T03:32:32;9.30;99.90
15765;DHT22;7983;50.744;7.086;2023-02-04T03:34:58;9.30;99.90
15765;DHT22;7983;50.744;7.086;2023-02-04T03:37:24;9.30;99.90
15765;DHT22;7983;50.744;7.086;2023-02-04T03:39:52;9.30;99.90
15765;DHT22;7983;50.744;7.086;2023-02-04T03:42:17;9.30;99.90
15765;DHT22;7983;50.744;7.086;2023-02-04T03:44:43;9.30;99.90
15765;DHT22;7983;50.744;7.086;2023-02-04T03:47:11;9.30;99.90
15765;DHT22;7983;50.744;7.086;2023-02-04T03:49:39;9.30;99.90
15765;DHT22;7983;50.744;7.086;2023-02-04T03:52:09;9.30;99.90
15765;DHT22;7983;50.744;7.086;2023-02-04T03:54:37;9.40;99.90
15765;DHT22;7983;50.744;7.086;2023-02-04T03:57:05;9.30;99.90
15765;DHT22;7983;50.744;7.086;2023-02-04T03:59:31;9.30;99.90
15765;DHT22;7983;50.744;7.086;2023-02-04T04:01:59;9.30;99.90
15765;DHT22;7983;50.744;7.086;2023-02-04T04:04:27;9.30;99.90
15765;DHT22;7983;50.744;7.086;2023-02-04T04:06:52;9.30;99.90
15765;DHT22;7983;50.744;7.086;2023-02-04T04:09:18;9.30;99.90
15765;DHT22;7983;50.744;7.086;2023-02-04T04:11:46;9.30;99.90
15765;DHT22;7983;50.744;7.086;2023-02-04T04:14:12;9.30;99.90
15765;DHT22;7983;50.744;7.086;2023-02-04T04:16:37;9.30;99.90
15765;DHT22;7983;50.744;7.086;2023-02-04T04:19:05;9.30;99.90
15765;DHT22;7983;50.744;7.086;2023-02-04T04:21:31;9.40;99.90
15765;DHT22;7983;50.744;7.086;2023-02-04T04:23:56;9.30;99.90
15765;DHT22;7983;50.744;7.086;2023-02-04T04:26:22;9.30;99.90
15765;DHT22;7983;50.744;7.086;2023-02-04T04:28:50;9.30;99.90
15765;DHT22;7983;50.744;7.086;2023-02-04T04:31:15;9.30;99.90
15765;DHT22;7983;50.744;7.086;2023-02-04T04:33:41;9.30;99.90
15765;DHT22;7983;50.744;7.086;2023-02-04T04:36:07;9.30;99.90
15765;DHT22;7983;50.744;7.086;2023-02-04T04:38:33;9.30;99.90
15765;DHT22;7983;50.744;7.086;2023-02-04T04:40:58;9.30;99.90
15765;DHT22;7983;50.744;7.086;2023-02-04T04:43:26;9.30;99.90
15765;DHT22;7983;50.744;7.086;2023-02-04T04:45:54;9.30;99.90
15765;DHT22;7983;50.744;7.086;2023-02-04T04:48:19;9.30;99.90
15765;DHT22;7983;50.744;7.086;2023-02-04T04:50:46;9.30;99.90
15765;DHT22;7983;50.744;7.086;2023-02-04T04:53:14;9.20;99.90
15765;DHT22;7983;50.744;7.086;2023-02-04T04:55:39;9.20;99.90
15765;DHT22;7983;50.744;7.086;2023-02-04T04:58:06;9.20;99.90
15765;DHT22;7983;50.744;7.086;2023-02-04T05:00:32;9.20;99.90
15765;DHT22;7983;50.744;7.086;2023-02-04T05:02:58;9.20;99.90
15765;DHT22;7983;50.744;7.086;2023-02-04T05:05:26;9.20;99.90
15765;DHT22;7983;50.744;7.086;2023-02-04T05:07:51;9.20;99.90
15765;DHT22;7983;50.744;7.086;2023-02-04T05:10:25;9.20;99.90
15765;DHT22;7983;50.744;7.086;2023-02-04T05:12:50;9.20;99.90
15765;DHT22;7983;50.744;7.086;2023-02-04T05:15:16;9.20;99.90
15765;DHT22;7983;50.744;7.086;2023-02-04T05:17:42;9.20;99.90
15765;DHT22;7983;50.744;7.086;2023-02-04T05:20:08;9.20;99.90
15765;DHT22;7983;50.744;7.086;2023-02-04T05:22:33;9.20;99.90
15765;DHT22;7983;50.744;7.086;2023-02-04T05:25:02;9.20;99.90
15765;DHT22;7983;50.744;7.086;2023-02-04T05:27:27;9.10;99.90
15765;DHT22;7983;50.744;7.086;2023-02-04T05:29:53;9.10;99.90
15765;DHT22;7983;50.744;7.086;2023-02-04T05:32:19;9.10;99.90
15765;DHT22;7983;50.744;7.086;2023-02-04T05:34:44;9.10;99.90
15765;DHT22;7983;50.744;7.086;2023-02-04T05:37:10;9.10;99.90
15765;DHT22;7983;50.744;7.086;2023-02-04T05:39:35;9.10;99.90
15765;DHT22;7983;50.744;7.086;2023-02-04T05:42:01;9.10;99.90
15765;DHT22;7983;50.744;7.086;2023-02-04T05:44:29;9.10;99.90
15765;DHT22;7983;50.744;7.086;2023-02-04T05:46:57;9.10;99.90
15765;DHT22;7983;50.744;7.086;2023-02-04T05:49:23;9.00;99.90
15765;DHT22;7983;50.744;7.086;2023-02-04T05:51:51;9.00;99.90
15765;DHT22;7983;50.744;7.086;2023-02-04T05:54:17;8.90;99.90
15765;DHT22;7983;50.744;7.086;2023-02-04T05:56:46;8.90;99.90
15765;DHT22;7983;50.744;7.086;2023-02-04T05:59:12;8.90;99.90
15765;DHT22;7983;50.744;7.086;2023-02-04T06:01:40;8.90;99.90
15765;DHT22;7983;50.744;7.086;2023-02-04T06:04:05;8.90;99.90
15765;DHT22;7983;50.744;7.086;2023-02-04T06:06:31;8.80;99.90
15765;DHT22;7983;50.744;7.086;2023-02-04T06:08:56;8.80;99.90
15765;DHT22;7983;50.744;7.086;2023-02-04T06:11:22;8.90;99.90
15765;DHT22;7983;50.744;7.086;2023-02-04T06:13:50;8.80;99.90
15765;DHT22;7983;50.744;7.086;2023-02-04T06:16:18;8.80;99.90
15765;DHT22;7983;50.744;7.086;2023-02-04T06:18:44;8.80;99.90
15765;DHT22;7983;50.744;7.086;2023-02-04T06:21:12;8.80;99.90
15765;DHT22;7983;50.744;7.086;2023-02-04T06:23:39;8.80;99.90
15765;DHT22;7983;50.744;7.086;2023-02-04T06:26:05;8.80;99.90
15765;DHT22;7983;50.744;7.086;2023-02-04T06:28:33;8.80;99.90
15765;DHT22;7983;50.744;7.086;2023-02-04T06:30:58;8.80;99.90
15765;DHT22;7983;50.744;7.086;2023-02-04T06:33:26;8.80;99.90
15765;DHT22;7983;50.744;7.086;2023-02-04T06:35:54;8.70;99.90
15765;DHT22;7983;50.744;7.086;2023-02-04T06:38:20;8.70;99.90
15765;DHT22;7983;50.744;7.086;2023-02-04T06:40:48;8.80;99.90
15765;DHT22;7983;50.744;7.086;2023-02-04T06:43:16;8.70;99.90
15765;DHT22;7983;50.744;7.086;2023-02-04T06:45:44;8.80;99.90
15765;DHT22;7983;50.744;7.086;2023-02-04T06:48:10;8.70;99.90
15765;DHT22;7983;50.744;7.086;2023-02-04T06:50:35;8.60;99.90
15765;DHT22;7983;50.744;7.086;2023-02-04T06:53:01;8.70;99.90
15765;DHT22;7983;50.744;7.086;2023-02-04T06:55:26;8.70;99.90
15765;DHT22;7983;50.744;7.086;2023-02-04T06:57:52;8.70;99.90
15765;DHT22;7983;50.744;7.086;2023-02-04T07:00:20;8.70;99.90
15765;DHT22;7983;50.744;7.086;2023-02-04T07:02:45;8.70;99.90
15765;DHT22;7983;50.744;7.086;2023-02-04T07:05:12;8.70;99.90
15765;DHT22;7983;50.744;7.086;2023-02-04T07:07:40;8.60;99.90
15765;DHT22;7983;50.744;7.086;2023-02-04T07:10:08;8.60;99.90
15765;DHT22;7983;50.744;7.086;2023-02-04T07:12:34;8.60;99.90
15765;DHT22;7983;50.744;7.086;2023-02-04T07:15:00;8.60;99.90
15765;DHT22;7983;50.744;7.086;2023-02-04T07:17:25;8.60;99.90
15765;DHT22;7983;50.744;7.086;2023-02-04T07:19:51;8.60;99.90
15765;DHT22;7983;50.744;7.086;2023-02-04T07:22:19;8.60;99.90
15765;DHT22;7983;50.744;7.086;2023-02-04T07:24:44;8.60;99.90
15765;DHT22;7983;50.744;7.086;2023-02-04T07:27:13;8.60;99.90
15765;DHT22;7983;50.744;7.086;2023-02-04T07:29:38;8.60;99.90
15765;DHT22;7983;50.744;7.086;2023-02-04T07:32:04;8.60;99.90
15765;DHT22;7983;50.744;7.086;2023-02-04T07:34:34;8.60;99.90
15765;DHT22;7983;50.744;7.086;2023-02-04T07:37:00;8.60;99.90
15765;DHT22;7983;50.744;7.086;2023-02-04T07:39:25;8.60;99.90
15765;DHT22;7983;50.744;7.086;2023-02-04T07:41:53;8.60;99.90
15765;DHT22;7983;50.744;7.086;2023-02-04T07:44:19;8.60;99.90
15765;DHT22;7983;50.744;7.086;2023-02-04T07:46:47;8.60;99.90
15765;DHT22;7983;50.744;7.086;2023-02-04T07:49:12;8.70;99.90
15765;DHT22;7983;50.744;7.086;2023-02-04T07:51:38;8.70;99.90
15765;DHT22;7983;50.744;7.086;2023-02-04T07:54:03;8.70;99.90
15765;DHT22;7983;50.744;7.086;2023-02-04T07:56:29;8.70;99.90
15765;DHT22;7983;50.744;7.086;2023-02-04T07:58:57;8.70;99.90
15765;DHT22;7983;50.744;7.086;2023-02-04T08:01:22;8.60;99.90
15765;DHT22;7983;50.744;7.086;2023-02-04T08:03:48;8.70;99.90
15765;DHT22;7983;50.744;7.086;2023-02-04T08:06:14;8.70;99.90
15765;DHT22;7983;50.744;7.086;2023-02-04T08:08:39;8.80;99.90
15765;DHT22;7983;50.744;7.086;2023-02-04T08:11:05;8.80;99.90
15765;DHT22;7983;50.744;7.086;2023-02-04T08:13:30;8.80;99.90
15765;DHT22;7983;50.744;7.086;2023-02-04T08:15:56;8.80;99.90
15765;DHT22;7983;50.744;7.086;2023-02-04T08:18:26;8.80;99.90
15765;DHT22;7983;50.744;7.086;2023-02-04T08:20:56;8.80;99.90
15765;DHT22;7983;50.744;7.086;2023-02-04T08:23:23;8.80;99.90
15765;DHT22;7983;50.744;7.086;2023-02-04T08:25:49;8.80;99.90
15765;DHT22;7983;50.744;7.086;2023-02-04T08:28:14;8.80;99.90
15765;DHT22;7983;50.744;7.086;2023-02-04T08:30:43;8.80;99.90
15765;DHT22;7983;50.744;7.086;2023-02-04T08:33:10;8.80;99.90
15765;DHT22;7983;50.744;7.086;2023-02-04T08:35:39;8.90;99.90
15765;DHT22;7983;50.744;7.086;2023-02-04T08:38:06;8.90;99.90
15765;DHT22;7983;50.744;7.086;2023-02-04T08:40:32;8.90;99.90
15765;DHT22;7983;50.744;7.086;2023-02-04T08:42:58;8.90;99.90
15765;DHT22;7983;50.744;7.086;2023-02-04T08:45:25;9.00;99.90
15765;DHT22;7983;50.744;7.086;2023-02-04T08:47:51;9.00;99.90
15765;DHT22;7983;50.744;7.086;2023-02-04T08:50:17;9.00;99.90
15765;DHT22;7983;50.744;7.086;2023-02-04T08:52:43;9.00;99.90
15765;DHT22;7983;50.744;7.086;2023-02-04T08:55:08;9.10;99.90
15765;DHT22;7983;50.744;7.086;2023-02-04T08:57:34;9.10;99.90
15765;DHT22;7983;50.744;7.086;2023-02-04T09:00:00;9.20;99.90
15765;DHT22;7983;50.744;7.086;2023-02-04T09:02:28;9.20;99.90
15765;DHT22;7983;50.744;7.086;2023-02-04T09:04:54;9.30;99.90
15765;DHT22;7983;50.744;7.086;2023-02-04T09:07:19;9.30;99.90
15765;DHT22;7983;50.744;7.086;2023-02-04T09:09:48;9.40;99.90
15765;DHT22;7983;50.744;7.086;2023-02-04T09:12:14;9.40;99.90
15765;DHT22;7983;50.744;7.086;2023-02-04T09:14:39;9.40;99.90
15765;DHT22;7983;50.744;7.086;2023-02-04T09:17:07;9.40;99.90
15765;DHT22;7983;50.744;7.086;2023-02-04T09:19:35;9.40;99.90
15765;DHT22;7983;50.744;7.086;2023-02-04T09:22:05;9.40;99.90
15765;DHT22;7983;50.744;7.086;2023-02-04T09:24:33;9.50;99.90
15765;DHT22;7983;50.744;7.086;2023-02-04T09:27:01;9.50;99.90
15765;DHT22;7983;50.744;7.086;2023-02-04T09:29:27;9.50;99.90
15765;DHT22;7983;50.744;7.086;2023-02-04T09:31:55;9.50;99.90
15765;DHT22;7983;50.744;7.086;2023-02-04T09:34:20;9.60;99.90
15765;DHT22;7983;50.744;7.086;2023-02-04T09:36:48;9.50;99.90
15765;DHT22;7983;50.744;7.086;2023-02-04T09:39:16;9.60;99.90
15765;DHT22;7983;50.744;7.086;2023-02-04T09:41:42;9.70;99.90
15765;DHT22;7983;50.744;7.086;2023-02-04T09:44:16;9.70;99.90
15765;DHT22;7983;50.744;7.086;2023-02-04T09:46:47;9.80;99.90
15765;DHT22;7983;50.744;7.086;2023-02-04T09:49:16;9.70;99.90
15765;DHT22;7983;50.744;7.086;2023-02-04T09:51:42;9.80;99.90
15765;DHT22;7983;50.744;7.086;2023-02-04T09:54:14;9.80;99.90
15765;DHT22;7983;50.744;7.086;2023-02-04T09:56:43;9.90;99.90
15765;DHT22;7983;50.744;7.086;2023-02-04T09:59:18;10.00;99.90
15765;DHT22;7983;50.744;7.086;2023-02-04T10:01:56;10.00;99.90
15765;DHT22;7983;50.744;7.086;2023-02-04T10:04:24;10.00;99.90
15765;DHT22;7983;50.744;7.086;2023-02-04T10:06:54;10.10;99.90
15765;DHT22;7983;50.744;7.086;2023-02-04T10:09:22;10.20;99.90
15765;DHT22;7983;50.744;7.086;2023-02-04T10:11:50;10.20;99.90
15765;DHT22;7983;50.744;7.086;2023-02-04T10:14:19;10.30;99.90
15765;DHT22;7983;50.744;7.086;2023-02-04T10:16:55;10.30;99.90
15765;DHT22;7983;50.744;7.086;2023-02-04T10:19:22;10.40;99.90
15765;DHT22;7983;50.744;7.086;2023-02-04T10:21:48;10.40;99.90
15765;DHT22;7983;50.744;7.086;2023-02-04T10:24:21;10.40;99.90
15765;DHT22;7983;50.744;7.086;2023-02-04T10:26:50;10.50;99.90
15765;DHT22;7983;50.744;7.086;2023-02-04T10:29:19;10.60;99.90
15765;DHT22;7983;50.744;7.086;2023-02-04T10:31:49;10.60;99.90
15765;DHT22;7983;50.744;7.086;2023-02-04T10:34:33;10.60;99.90
15765;DHT22;7983;50.744;7.086;2023-02-04T10:36:59;10.60;99.90
15765;DHT22;7983;50.744;7.086;2023-02-04T10:39:29;10.60;99.90
15765;DHT22;7983;50.744;7.086;2023-02-04T10:41:57;10.70;99.90
15765;DHT22;7983;50.744;7.086;2023-02-04T10:44:30;10.60;99.90
15765;DHT22;7983;50.744;7.086;2023-02-04T10:50:01;10.60;99.90
15765;DHT22;7983;50.744;7.086;2023-02-04T10:52:35;10.60;99.90
15765;DHT22;7983;50.744;7.086;2023-02-04T10:55:04;10.60;99.90
15765;DHT22;7983;50.744;7.086;2023-02-04T10:57:31;10.60;99.90
15765;DHT22;7983;50.744;7.086;2023-02-04T11:00:01;10.60;99.90
15765;DHT22;7983;50.744;7.086;2023-02-04T11:05:22;10.50;99.90
15765;DHT22;7983;50.744;7.086;2023-02-04T11:07:49;10.60;99.90
15765;DHT22;7983;50.744;7.086;2023-02-04T11:10:20;10.60;99.90
15765;DHT22;7983;50.744;7.086;2023-02-04T11:15:47;10.70;99.90
15765;DHT22;7983;50.744;7.086;2023-02-04T11:20:48;10.80;99.90
15765;DHT22;7983;50.744;7.086;2023-02-04T11:25:39;10.80;99.90
15765;DHT22;7983;50.744;7.086;2023-02-04T11:33:43;10.80;99.90
15765;DHT22;7983;50.744;7.086;2023-02-04T11:36:11;10.80;99.90
15765;DHT22;7983;50.744;7.086;2023-02-04T11:38:38;10.80;99.90
15765;DHT22;7983;50.744;7.086;2023-02-04T11:41:04;10.90;99.90
15765;DHT22;7983;50.744;7.086;2023-02-04T11:43:35;10.90;99.90
15765;DHT22;7983;50.744;7.086;2023-02-04T11:46:09;10.90;99.90
15765;DHT22;7983;50.744;7.086;2023-02-04T11:48:39;10.90;99.90
15765;DHT22;7983;50.744;7.086;2023-02-04T11:51:14;11.00;99.90
15765;DHT22;7983;50.744;7.086;2023-02-04T11:53:43;11.10;99.90
15765;DHT22;7983;50.744;7.086;2023-02-04T11:56:29;11.00;99.90
15765;DHT22;7983;50.744;7.086;2023-02-04T11:58:58;11.00;99.90
15765;DHT22;7983;50.744;7.086;2023-02-04T12:01:33;11.10;99.90
15765;DHT22;7983;50.744;7.086;2023-02-04T12:04:01;11.10;99.90
15765;DHT22;7983;50.744;7.086;2023-02-04T12:06:32;11.10;99.90
15765;DHT22;7983;50.744;7.086;2023-02-04T12:09:19;11.20;99.90
15765;DHT22;7983;50.744;7.086;2023-02-04T12:11:55;11.20;99.90
15765;DHT22;7983;50.744;7.086;2023-02-04T12:14:31;11.30;99.90
15765;DHT22;7983;50.744;7.086;2023-02-04T12:16:59;11.40;99.90
15765;DHT22;7983;50.744;7.086;2023-02-04T12:19:25;11.40;99.90
15765;DHT22;7983;50.744;7.086;2023-02-04T12:21:53;11.50;99.90
15765;DHT22;7983;50.744;7.086;2023-02-04T12:24:22;11.60;99.90
15765;DHT22;7983;50.744;7.086;2023-02-04T12:26:48;11.60;99.90
15765;DHT22;7983;50.744;7.086;2023-02-04T12:29:14;11.60;99.90
15765;DHT22;7983;50.744;7.086;2023-02-04T12:31:39;11.60;99.90
15765;DHT22;7983;50.744;7.086;2023-02-04T12:34:07;11.60;99.90
15765;DHT22;7983;50.744;7.086;2023-02-04T12:36:33;11.70;99.90
15765;DHT22;7983;50.744;7.086;2023-02-04T12:38:59;11.70;99.90
15765;DHT22;7983;50.744;7.086;2023-02-04T12:41:25;11.70;99.90
15765;DHT22;7983;50.744;7.086;2023-02-04T12:43:50;11.70;99.90
15765;DHT22;7983;50.744;7.086;2023-02-04T12:46:17;11.70;99.90
15765;DHT22;7983;50.744;7.086;2023-02-04T12:48:44;11.70;99.90
15765;DHT22;7983;50.744;7.086;2023-02-04T12:51:10;11.70;99.90
15765;DHT22;7983;50.744;7.086;2023-02-04T12:53:36;11.70;99.90
15765;DHT22;7983;50.744;7.086;2023-02-04T12:56:04;11.70;99.90
15765;DHT22;7983;50.744;7.086;2023-02-04T12:58:30;11.80;99.90
15765;DHT22;7983;50.744;7.086;2023-02-04T13:01:00;11.70;99.90
15765;DHT22;7983;50.744;7.086;2023-02-04T13:03:28;11.70;99.90
15765;DHT22;7983;50.744;7.086;2023-02-04T13:05:57;11.80;99.90
15765;DHT22;7983;50.744;7.086;2023-02-04T13:08:25;11.70;99.90
15765;DHT22;7983;50.744;7.086;2023-02-04T13:10:53;11.70;99.90
15765;DHT22;7983;50.744;7.086;2023-02-04T13:13:22;11.70;99.90
15765;DHT22;7983;50.744;7.086;2023-02-04T13:15:50;11.70;99.90
15765;DHT22;7983;50.744;7.086;2023-02-04T13:18:18;11.70;99.90
15765;DHT22;7983;50.744;7.086;2023-02-04T13:20:44;11.70;99.90
15765;DHT22;7983;50.744;7.086;2023-02-04T13:23:10;11.70;99.90
15765;DHT22;7983;50.744;7.086;2023-02-04T13:25:36;11.80;99.90
15765;DHT22;7983;50.744;7.086;2023-02-04T13:28:03;11.80;99.90
15765;DHT22;7983;50.744;7.086;2023-02-04T13:30:29;11.80;99.90
15765;DHT22;7983;50.744;7.086;2023-02-04T13:32:55;11.80;99.90
15765;DHT22;7983;50.744;7.086;2023-02-04T13:35:20;11.90;99.90
15765;DHT22;7983;50.744;7.086;2023-02-04T13:37:46;11.90;99.90
15765;DHT22;7983;50.744;7.086;2023-02-04T13:40:14;12.00;99.90
15765;DHT22;7983;50.744;7.086;2023-02-04T13:42:39;12.00;99.90
15765;DHT22;7983;50.744;7.086;2023-02-04T13:45:08;12.10;99.90
15765;DHT22;7983;50.744;7.086;2023-02-04T13:47:36;12.10;99.90
15765;DHT22;7983;50.744;7.086;2023-02-04T13:50:02;12.20;99.90
15765;DHT22;7983;50.744;7.086;2023-02-04T13:52:30;12.20;99.90
15765;DHT22;7983;50.744;7.086;2023-02-04T13:54:55;12.20;99.90
15765;DHT22;7983;50.744;7.086;2023-02-04T13:57:21;12.20;99.90
15765;DHT22;7983;50.744;7.086;2023-02-04T13:59:49;12.20;99.90
15765;DHT22;7983;50.744;7.086;2023-02-04T14:02:17;12.30;99.90
15765;DHT22;7983;50.744;7.086;2023-02-04T14:04:42;12.30;99.90
15765;DHT22;7983;50.744;7.086;2023-02-04T14:07:11;12.40;99.90
15765;DHT22;7983;50.744;7.086;2023-02-04T14:09:37;12.40;99.90
15765;DHT22;7983;50.744;7.086;2023-02-04T14:12:05;12.40;99.90
15765;DHT22;7983;50.744;7.086;2023-02-04T14:14:33;12.40;99.90
15765;DHT22;7983;50.744;7.086;2023-02-04T14:17:01;12.40;99.90
15765;DHT22;7983;50.744;7.086;2023-02-04T14:19:27;12.40;99.90
15765;DHT22;7983;50.744;7.086;2023-02-04T14:21:53;12.40;99.90
15765;DHT22;7983;50.744;7.086;2023-02-04T14:24:18;12.50;99.90
15765;DHT22;7983;50.744;7.086;2023-02-04T14:26:45;12.50;99.90
15765;DHT22;7983;50.744;7.086;2023-02-04T14:29:10;12.50;99.90
15765;DHT22;7983;50.744;7.086;2023-02-04T14:31:36;12.60;99.90
15765;DHT22;7983;50.744;7.086;2023-02-04T14:34:05;12.60;99.90
15765;DHT22;7983;50.744;7.086;2023-02-04T14:36:33;12.60;99.90
15765;DHT22;7983;50.744;7.086;2023-02-04T14:38:58;12.60;99.90
15765;DHT22;7983;50.744;7.086;2023-02-04T14:41:24;12.60;99.90
15765;DHT22;7983;50.744;7.086;2023-02-04T14:43:54;12.60;99.90
15765;DHT22;7983;50.744;7.086;2023-02-04T14:46:20;12.60;99.90
15765;DHT22;7983;50.744;7.086;2023-02-04T14:48:48;12.70;99.90
15765;DHT22;7983;50.744;7.086;2023-02-04T14:51:16;12.80;99.90
15765;DHT22;7983;50.744;7.086;2023-02-04T14:53:42;12.90;99.90
15765;DHT22;7983;50.744;7.086;2023-02-04T14:56:11;13.10;99.90
15765;DHT22;7983;50.744;7.086;2023-02-04T14:58:41;13.20;99.90
15765;DHT22;7983;50.744;7.086;2023-02-04T15:01:06;13.30;99.90
15765;DHT22;7983;50.744;7.086;2023-02-04T15:03:32;13.50;99.90
15765;DHT22;7983;50.744;7.086;2023-02-04T15:06:00;13.60;99.90
15765;DHT22;7983;50.744;7.086;2023-02-04T15:08:28;13.60;99.90
15765;DHT22;7983;50.744;7.086;2023-02-04T15:10:54;13.70;99.90
15765;DHT22;7983;50.744;7.086;2023-02-04T15:13:24;13.60;99.90
15765;DHT22;7983;50.744;7.086;2023-02-04T15:15:50;13.60;99.90
15765;DHT22;7983;50.744;7.086;2023-02-04T15:18:15;13.40;99.90
15765;DHT22;7983;50.744;7.086;2023-02-04T15:20:43;13.30;99.90
15765;DHT22;7983;50.744;7.086;2023-02-04T15:23:11;13.20;99.90
15765;DHT22;7983;50.744;7.086;2023-02-04T15:25:39;13.10;99.90
15765;DHT22;7983;50.744;7.086;2023-02-04T15:28:07;13.00;99.90
15765;DHT22;7983;50.744;7.086;2023-02-04T15:30:33;12.80;99.90
15765;DHT22;7983;50.744;7.086;2023-02-04T15:32:59;12.70;99.90
15765;DHT22;7983;50.744;7.086;2023-02-04T15:35:24;12.60;99.90
15765;DHT22;7983;50.744;7.086;2023-02-04T15:37:50;12.40;99.90
15765;DHT22;7983;50.744;7.086;2023-02-04T15:40:16;12.40;99.90
15765;DHT22;7983;50.744;7.086;2023-02-04T15:42:44;12.30;99.90
15765;DHT22;7983;50.744;7.086;2023-02-04T15:45:12;12.30;99.90
15765;DHT22;7983;50.744;7.086;2023-02-04T15:47:40;12.20;99.90
15765;DHT22;7983;50.744;7.086;2023-02-04T15:50:06;12.10;99.90
15765;DHT22;7983;50.744;7.086;2023-02-04T15:52:33;12.10;99.90
15765;DHT22;7983;50.744;7.086;2023-02-04T15:54:59;12.00;99.90
15765;DHT22;7983;50.744;7.086;2023-02-04T15:57:26;12.00;99.90
15765;DHT22;7983;50.744;7.086;2023-02-04T15:59:52;11.90;99.90
15765;DHT22;7983;50.744;7.086;2023-02-04T16:02:18;11.80;99.90
15765;DHT22;7983;50.744;7.086;2023-02-04T16:04:43;11.80;99.90
15765;DHT22;7983;50.744;7.086;2023-02-04T16:07:14;11.80;99.90
15765;DHT22;7983;50.744;7.086;2023-02-04T16:09:40;11.70;99.90
15765;DHT22;7983;50.744;7.086;2023-02-04T16:12:06;11.70;99.90
15765;DHT22;7983;50.744;7.086;2023-02-04T16:14:31;11.60;99.90